Terminal Aerodrome Forecast
Issued by NWS Wilmington, OH

Current Version | Previous Version | Text Only | Print | Product List | Glossary Off
Versions: 1 2 3 4 5 6 7 8 9 10 11 12 13 14 15 16

000
FTUS41 KILN 301501 AAA
TAFCMH
TAF AMD
KCMH 301501Z 3015/3112 14010KT P6SM VCSH BKN060
     FM301800 14012G18KT P6SM VCSH BKN060
     FM302000 17012G18KT P6SM VCSH BKN060
     FM302300 16012KT P6SM VCSH BKN060
     FM310200 16011KT 5SM -TSRA BR OVC035CB
     FM310600 16008KT 3SM SHRA BR OVC012
     FM311000 19009KT 5SM -SHRA BR OVC008=

USA.gov is the U.S. government's official web portal to all federal, state and local government web resources and services.